createdAt,value
2023-04-10T00:02:01.420Z,0.00
2023-04-10T00:07:23.692Z,0.00
2023-04-10T00:12:16.067Z,0.00
2023-04-10T00:17:15.971Z,0.00
2023-04-10T00:22:16.704Z,0.00
2023-04-10T00:27:15.863Z,0.00
2023-04-10T00:32:16.007Z,0.00
2023-04-10T00:37:15.703Z,0.00
2023-04-10T00:42:15.686Z,0.00
2023-04-10T00:47:15.587Z,0.00
2023-04-10T00:52:15.554Z,0.00
2023-04-10T00:57:15.578Z,0.00
2023-04-10T01:02:15.529Z,0.00
2023-04-10T01:07:15.364Z,0.00
2023-04-10T01:12:15.303Z,0.00
2023-04-10T01:17:15.188Z,0.00
2023-04-10T01:22:15.160Z,0.00
2023-04-10T01:27:15.109Z,0.00
2023-04-10T01:32:15.024Z,0.00
2023-04-10T01:37:14.977Z,0.00
2023-04-10T01:42:14.931Z,0.00
2023-04-10T01:47:14.837Z,0.00
2023-04-10T01:52:14.778Z,0.00
2023-04-10T01:57:14.702Z,0.00
2023-04-10T02:02:14.724Z,0.00
2023-04-10T02:07:14.622Z,0.00
2023-04-10T02:12:14.512Z,0.00
2023-04-10T02:17:14.426Z,0.00
2023-04-10T02:22:14.378Z,0.00
2023-04-10T02:27:15.244Z,0.00
2023-04-10T02:32:14.244Z,0.00
2023-04-10T02:37:14.173Z,0.00
2023-04-10T02:42:14.101Z,0.00
2023-04-10T02:47:14.043Z,0.00
2023-04-10T02:52:14.768Z,0.00
2023-04-10T02:57:13.920Z,0.00
2023-04-10T03:02:13.946Z,0.00
2023-04-10T03:07:13.767Z,0.00
2023-04-10T03:12:14.141Z,0.00
2023-04-10T03:17:13.978Z,0.00
2023-04-10T03:22:13.610Z,0.00
2023-04-10T03:27:13.522Z,0.00
2023-04-10T03:32:13.454Z,0.00
2023-04-10T03:37:13.384Z,0.00
2023-04-10T03:42:13.346Z,0.00
2023-04-10T03:47:13.289Z,0.00
2023-04-10T03:52:13.214Z,0.00
2023-04-10T03:57:13.113Z,0.00
2023-04-10T04:02:13.165Z,0.00
2023-04-10T04:07:12.976Z,0.00
2023-04-10T04:12:12.925Z,0.00
2023-04-10T04:17:23.852Z,0.00
2023-04-10T04:22:16.217Z,4.00
2023-04-10T04:27:16.164Z,4.00
2023-04-10T04:32:16.246Z,8.00
2023-04-10T04:37:16.055Z,20.00
2023-04-10T04:42:15.996Z,40.00
2023-04-10T04:47:15.944Z,72.00
2023-04-10T04:52:15.837Z,112.00
2023-04-10T04:57:15.802Z,176.00
2023-04-10T05:02:15.782Z,268.00
2023-04-10T05:07:15.688Z,404.00
2023-04-10T05:12:15.591Z,532.00
2023-04-10T05:17:15.539Z,680.00
2023-04-10T05:22:18.036Z,860.00
2023-04-10T05:27:15.403Z,1032.00
2023-04-10T05:32:15.328Z,1176.00
2023-04-10T05:37:15.261Z,1368.00
2023-04-10T05:42:15.188Z,1452.00
2023-04-10T05:47:15.142Z,1636.00
2023-04-10T05:52:15.053Z,1696.00
2023-04-10T05:57:14.995Z,1844.00
2023-04-10T06:02:15.040Z,2288.00
2023-04-10T06:07:14.866Z,2656.00
2023-04-10T06:12:14.795Z,2652.00
2023-04-10T06:17:14.727Z,2844.00
2023-04-10T06:22:14.653Z,3212.00
2023-04-10T06:27:14.594Z,3448.00
2023-04-10T06:32:14.525Z,4176.00
2023-04-10T06:37:14.475Z,5312.00
2023-04-10T06:42:14.401Z,22784.00
2023-04-10T06:47:14.342Z,34976.00
2023-04-10T06:52:14.291Z,45792.00
2023-04-10T06:57:14.234Z,53568.00
2023-04-10T07:02:14.205Z,47264.00
2023-04-10T07:07:14.102Z,48384.00
2023-04-10T07:12:14.003Z,13344.00
2023-04-10T07:17:13.951Z,14144.00
2023-04-10T07:22:13.872Z,11080.00
2023-04-10T07:27:13.826Z,9968.00
2023-04-10T07:32:13.776Z,10612.00
2023-04-10T07:37:13.704Z,11172.00
2023-04-10T07:42:13.689Z,12072.00
2023-04-10T07:47:13.567Z,23008.00
2023-04-10T07:52:13.495Z,25664.00
2023-04-10T07:57:13.430Z,27808.00
2023-04-10T08:02:13.387Z,25568.00
2023-04-10T08:07:13.329Z,30432.00
2023-04-10T08:12:13.216Z,33632.00
2023-04-10T08:17:13.181Z,35552.00
2023-04-10T08:22:13.134Z,28384.00
2023-04-10T08:27:13.043Z,22208.00
2023-04-10T08:32:12.989Z,13792.00
2023-04-10T08:37:12.895Z,16480.00
2023-04-10T08:42:12.869Z,18144.00
2023-04-10T08:47:12.813Z,18400.00
2023-04-10T08:52:12.702Z,14592.00
2023-04-10T08:57:12.666Z,13856.00
2023-04-10T09:02:12.649Z,14560.00
2023-04-10T09:07:12.515Z,14784.00
2023-04-10T09:12:12.452Z,13248.00
2023-04-10T09:17:12.362Z,12344.00
2023-04-10T09:22:12.292Z,12144.00
2023-04-10T09:27:12.249Z,11732.00
2023-04-10T09:32:12.153Z,12048.00
2023-04-10T09:37:12.125Z,11928.00
2023-04-10T09:42:12.098Z,11868.00
2023-04-10T09:47:11.963Z,12800.00
2023-04-10T09:52:11.965Z,12512.00
2023-04-10T09:57:11.839Z,12608.00
2023-04-10T10:02:11.861Z,12224.00
2023-04-10T10:07:11.684Z,10968.00
2023-04-10T10:12:11.640Z,10912.00
2023-04-10T10:17:11.608Z,11752.00
2023-04-10T10:22:11.505Z,13184.00
2023-04-10T10:27:11.511Z,12800.00
2023-04-10T10:32:11.411Z,12384.00
2023-04-10T10:37:11.501Z,16576.00
2023-04-10T10:42:11.231Z,21952.00
2023-04-10T10:47:11.180Z,23104.00
2023-04-10T10:52:11.106Z,17152.00
2023-04-10T10:57:11.093Z,20608.00
2023-04-10T11:02:11.049Z,25504.00
2023-04-10T11:07:10.992Z,26240.00
2023-04-10T11:12:10.859Z,22912.00
2023-04-10T11:17:10.804Z,23616.00
2023-04-10T11:22:10.737Z,22688.00
2023-04-10T11:27:10.663Z,23904.00
2023-04-10T11:32:10.710Z,18080.00
2023-04-10T11:37:10.545Z,14752.00
2023-04-10T11:42:10.463Z,15616.00
2023-04-10T11:47:10.466Z,11920.00
2023-04-10T11:52:10.340Z,10192.00
2023-04-10T11:57:10.261Z,9188.00
2023-04-10T12:02:10.268Z,11508.00
2023-04-10T12:07:10.173Z,11312.00
2023-04-10T12:12:10.049Z,9012.00
2023-04-10T12:17:10.015Z,7612.00
2023-04-10T12:22:09.915Z,6648.00
2023-04-10T12:27:09.832Z,6092.00
2023-04-10T12:32:09.764Z,5912.00
2023-04-10T12:37:09.757Z,6248.00
2023-04-10T12:42:09.650Z,6820.00
2023-04-10T12:47:09.628Z,6744.00
2023-04-10T12:52:09.586Z,7192.00
2023-04-10T12:57:09.543Z,7332.00
2023-04-10T13:02:09.551Z,7292.00
2023-04-10T13:07:09.335Z,7560.00
2023-04-10T13:12:09.286Z,7288.00
2023-04-10T13:17:09.251Z,8512.00
2023-04-10T13:22:09.158Z,7724.00
2023-04-10T13:27:09.053Z,6704.00
2023-04-10T13:32:09.032Z,5816.00
2023-04-10T13:37:08.968Z,5768.00
2023-04-10T13:42:08.875Z,5004.00
2023-04-10T13:47:08.940Z,5436.00
2023-04-10T13:52:08.740Z,5188.00
2023-04-10T13:57:08.682Z,4892.00
2023-04-10T14:02:08.735Z,4784.00
2023-04-10T14:07:08.519Z,4476.00
2023-04-10T14:12:08.465Z,4652.00
2023-04-10T14:17:08.383Z,4340.00
2023-04-10T14:22:08.730Z,3740.00
2023-04-10T14:27:08.245Z,4052.00
2023-04-10T14:32:08.265Z,4648.00
2023-04-10T14:37:08.121Z,4692.00
2023-04-10T14:42:08.161Z,4916.00
2023-04-10T14:47:08.032Z,4784.00
2023-04-10T14:52:07.948Z,4080.00
2023-04-10T14:57:07.908Z,3768.00
2023-04-10T15:02:07.882Z,3644.00
2023-04-10T15:07:07.736Z,3852.00
2023-04-10T15:12:07.890Z,3792.00
2023-04-10T15:17:07.767Z,3444.00
2023-04-10T15:22:07.574Z,3024.00
2023-04-10T15:27:07.455Z,2772.00
2023-04-10T15:32:07.395Z,2792.00
2023-04-10T15:37:07.395Z,2664.00
2023-04-10T15:42:07.303Z,2548.00
2023-04-10T15:47:07.300Z,2388.00
2023-04-10T15:52:07.257Z,2120.00
2023-04-10T15:57:07.094Z,1812.00
2023-04-10T16:02:07.052Z,1504.00
2023-04-10T16:07:06.945Z,1324.00
2023-04-10T16:12:06.916Z,1272.00
2023-04-10T16:17:06.821Z,1224.00
2023-04-10T16:22:06.744Z,1120.00
2023-04-10T16:27:06.693Z,1104.00
2023-04-10T16:32:06.598Z,1104.00
2023-04-10T16:37:06.552Z,1020.00
2023-04-10T16:42:06.462Z,972.00
2023-04-10T16:47:06.479Z,708.00
2023-04-10T16:52:06.406Z,420.00
2023-04-10T16:57:06.285Z,344.00
2023-04-10T17:02:06.262Z,324.00
2023-04-10T17:07:06.212Z,288.00
2023-04-10T17:12:06.082Z,244.00
2023-04-10T17:17:06.039Z,224.00
2023-04-10T17:22:05.967Z,240.00
2023-04-10T17:27:06.001Z,248.00
2023-04-10T17:32:05.828Z,188.00
2023-04-10T17:37:05.748Z,180.00
2023-04-10T17:42:05.657Z,196.00
2023-04-10T17:47:05.611Z,140.00
2023-04-10T17:52:05.571Z,84.00
2023-04-10T17:57:05.484Z,68.00
2023-04-10T18:02:05.429Z,60.00
2023-04-10T18:07:05.370Z,56.00
2023-04-10T18:12:05.298Z,24.00
2023-04-10T18:17:05.260Z,8.00
2023-04-10T18:22:05.140Z,4.00
2023-04-10T18:27:05.090Z,4.00
2023-04-10T18:32:05.024Z,4.00
2023-04-10T18:37:05.184Z,0.00
2023-04-10T18:42:04.873Z,0.00
2023-04-10T18:47:05.334Z,0.00
2023-04-10T18:52:04.733Z,0.00
2023-04-10T18:57:04.691Z,0.00
2023-04-10T19:02:04.646Z,0.00
2023-04-10T19:07:04.518Z,0.00
2023-04-10T19:12:04.502Z,0.00
2023-04-10T19:17:04.413Z,0.00
2023-04-10T19:22:04.329Z,0.00
2023-04-10T19:27:04.278Z,0.00
2023-04-10T19:32:04.236Z,0.00
2023-04-10T19:37:04.170Z,0.00
2023-04-10T19:42:04.136Z,0.00
2023-04-10T19:47:04.079Z,0.00
2023-04-10T19:52:03.933Z,0.00
2023-04-10T19:57:03.910Z,0.00
2023-04-10T20:02:03.849Z,0.00
2023-04-10T20:07:03.800Z,0.00
2023-04-10T20:12:03.687Z,0.00
2023-04-10T20:17:03.601Z,0.00
2023-04-10T20:22:03.554Z,0.00
2023-04-10T20:27:03.490Z,0.00
2023-04-10T20:32:03.447Z,0.00
2023-04-10T20:37:03.344Z,0.00
2023-04-10T20:42:03.258Z,0.00
2023-04-10T20:47:03.251Z,0.00
2023-04-10T20:52:03.181Z,0.00
2023-04-10T20:57:03.099Z,0.00
2023-04-10T21:02:03.093Z,0.00
2023-04-10T21:07:02.946Z,0.00
2023-04-10T21:12:02.888Z,0.00
2023-04-10T21:17:02.865Z,0.00
2023-04-10T21:22:02.767Z,0.00
2023-04-10T21:27:02.719Z,0.00
2023-04-10T21:32:02.674Z,0.00
2023-04-10T21:37:02.568Z,0.00
2023-04-10T21:42:02.529Z,0.00
2023-04-10T21:47:02.477Z,0.00
2023-04-10T21:52:02.342Z,0.00
2023-04-10T21:57:02.322Z,0.00
2023-04-10T22:02:02.236Z,0.00
2023-04-10T22:07:03.759Z,0.00
2023-04-10T22:12:02.103Z,0.00
2023-04-10T22:17:02.052Z,0.00
2023-04-10T22:22:01.954Z,0.00
2023-04-10T22:27:01.973Z,0.00
2023-04-10T22:32:01.826Z,0.00
2023-04-10T22:37:01.782Z,0.00
2023-04-10T22:42:01.789Z,0.00
2023-04-10T22:47:01.622Z,0.00
2023-04-10T22:52:01.536Z,0.00
2023-04-10T22:57:01.490Z,0.00
2023-04-10T23:02:01.499Z,0.00
2023-04-10T23:07:01.373Z,0.00
2023-04-10T23:12:01.272Z,0.00
2023-04-10T23:17:01.227Z,0.00
2023-04-10T23:22:01.129Z,0.00
2023-04-10T23:27:01.099Z,0.00
2023-04-10T23:32:01.028Z,0.00
2023-04-10T23:37:00.944Z,0.00
2023-04-10T23:42:00.873Z,0.00
2023-04-10T23:47:00.957Z,0.00
2023-04-10T23:52:00.741Z,0.00
2023-04-10T23:57:00.687Z,0.00
